KCLT/CLT METAR and TAF weather

Enter ICAO airport designator
Station Type Date Time Source
KCLT METAR 2018/10/16 19:52 UTC NOAA

KCLT 161952Z 00000KT 10SM FEW035 BKN085 BKN160 BKN250 27/19 A3009 RMK AO2 SLP180 T02720189


Station Type Date Time Source
KCLT Decoded METAR 2018/10/16 19:52 UTC NOAA

CHARLOTTE/DOUGLAS INTERNATIONAL , NC, United States (KCLT) 35-13N 80-57W 220M
Oct 16, 2018 - 03:52 PM EDT / 2018.10.16 1952 UTC
Wind: Calm:0
Visibility: 10 mile(s):0
Sky conditions: mostly cloudy
Temperature: 81.0 F (27.2 C)
Dew Point: 66.0 F (18.9 C)
Relative Humidity: 60%
Pressure (altimeter): 30.09 in. Hg (1018 hPa)
ob: KCLT 161952Z 00000KT 10SM FEW035 BKN085 BKN160 BKN250 27/19 A3009 RMK AO2 SLP180 T02720189
cycle: 20

Station Type Date Time Source
KCLT TAF 2018/10/16 20:12 UTC NOAA

TAF
AMD KCLT 162008Z 1620/1724 VRB03KT P6SM SCT045 BKN200
TEMPO 1621/1624 VRB10G20KT 4SM -TSRA BR OVC025CB
FM170000 07003KT 5SM -SHRA BR SCT025 OVC045
FM170400 VRB02KT P6SM OVC035
FM170800 31003KT 6SM BR SCT008 OVC016
FM171400 35004KT P6SM BKN040
FM171800 32005KT P6SM SCT120


Example: see airport list